UTN4422 UKBB-LUKK
Flight info
| Callsign | UTN4422 |
|---|---|
| Flight time | 0h 45m |
| Altitude | 32000 |
| Route | BASOR M856 SULUM N145 LAVDA Z888 MURKA |
| Aircraft | B763/H-SDE3FGHIM3RWXY/LB1 |
Departure
| Time | 2026-05-06 17:31 |
|---|---|
| Airport | Boryspil International Airport (UKBB) |
Arrival
| Time | 2026-05-06 18:17 |
|---|---|
| Airport | Chişinău International Airport (LUKK) |
| Time | Latitude | Longitude | Altitude | Speed | Heading |
|---|---|---|---|---|---|
| 2026-05-06 16:55 | 50.35098 | 30.90121 | 407 ft | 0 kts | 94° |
| 2026-05-06 17:19 | 50.35099 | 30.90101 | 408 ft | 2 kts | 93° |
| 2026-05-06 17:20 | 50.35099 | 30.90078 | 408 ft | 2 kts | 93° |
| 2026-05-06 17:20 | 50.35101 | 30.90054 | 408 ft | 2 kts | 94° |
| 2026-05-06 17:20 | 50.35101 | 30.90038 | 408 ft | 0 kts | 94° |
| 2026-05-06 17:20 | 50.35099 | 30.90017 | 408 ft | 2 kts | 46° |
| 2026-05-06 17:21 | 50.35090 | 30.90007 | 408 ft | 0 kts | 5° |
| 2026-05-06 17:21 | 50.35084 | 30.90007 | 408 ft | 1 kts | 1° |
| 2026-05-06 17:21 | 50.35082 | 30.90007 | 408 ft | 0 kts | 2° |
| 2026-05-06 17:29 | 50.35083 | 30.90007 | 408 ft | 0 kts | 2° |
| 2026-05-06 17:29 | 50.35104 | 30.90009 | 408 ft | 6 kts | 3° |
| 2026-05-06 17:29 | 50.35185 | 30.90072 | 408 ft | 19 kts | 74° |
| 2026-05-06 17:30 | 50.35223 | 30.90254 | 407 ft | 16 kts | 21° |
| 2026-05-06 17:30 | 50.35317 | 30.90311 | 406 ft | 10 kts | 85° |
| 2026-05-06 17:30 | 50.35262 | 30.90402 | 406 ft | 13 kts | 140° |
| 2026-05-06 17:30 | 50.35131 | 30.90520 | 407 ft | 27 kts | 157° |
| 2026-05-06 17:31 | 50.34909 | 30.90567 | 407 ft | 40 kts | 184° |
| 2026-05-06 17:31 | 50.34483 | 30.90533 | 409 ft | 94 kts | 183° |
| 2026-05-06 17:31 | 50.33556 | 30.90463 | 448 ft | 169 kts | 185° |
| 2026-05-06 17:31 | 50.32383 | 30.90339 | 1566 ft | 165 kts | 185° |
| 2026-05-06 17:32 | 50.31374 | 30.90257 | 2370 ft | 154 kts | 186° |
| 2026-05-06 17:32 | 50.30166 | 30.90130 | 2411 ft | 188 kts | 185° |
| 2026-05-06 17:32 | 50.28858 | 30.90050 | 3039 ft | 192 kts | 184° |
| 2026-05-06 17:32 | 50.27447 | 30.89956 | 3314 ft | 217 kts | 184° |
| 2026-05-06 17:33 | 50.25813 | 30.89844 | 3456 ft | 251 kts | 184° |
| 2026-05-06 17:33 | 50.24012 | 30.89723 | 4048 ft | 266 kts | 184° |
| 2026-05-06 17:33 | 50.22162 | 30.89597 | 4875 ft | 273 kts | 184° |
| 2026-05-06 17:33 | 50.20255 | 30.89469 | 5752 ft | 278 kts | 184° |
| 2026-05-06 17:34 | 50.18333 | 30.89274 | 6616 ft | 282 kts | 192° |
| 2026-05-06 17:34 | 50.16431 | 30.88484 | 7517 ft | 284 kts | 198° |
| 2026-05-06 17:34 | 50.14544 | 30.87628 | 8388 ft | 289 kts | 197° |
| 2026-05-06 17:34 | 50.12605 | 30.86743 | 9286 ft | 293 kts | 197° |
| 2026-05-06 17:35 | 50.10659 | 30.85850 | 10149 ft | 298 kts | 197° |
| 2026-05-06 17:35 | 50.08602 | 30.84904 | 10573 ft | 321 kts | 197° |
| 2026-05-06 17:35 | 50.06380 | 30.83880 | 10732 ft | 352 kts | 197° |
| 2026-05-06 17:36 | 50.01308 | 30.82213 | 11914 ft | 384 kts | 191° |
| 2026-05-06 17:36 | 49.98649 | 30.81440 | 12828 ft | 390 kts | 190° |
| 2026-05-06 17:36 | 49.95996 | 30.80687 | 13709 ft | 395 kts | 190° |
| 2026-05-06 17:36 | 49.93290 | 30.79915 | 14574 ft | 400 kts | 190° |
| 2026-05-06 17:37 | 49.90519 | 30.79122 | 15423 ft | 405 kts | 190° |
| 2026-05-06 17:37 | 49.87748 | 30.78332 | 16216 ft | 411 kts | 190° |
| 2026-05-06 17:37 | 49.84908 | 30.77520 | 17042 ft | 415 kts | 190° |
| 2026-05-06 17:37 | 49.82038 | 30.76702 | 17827 ft | 420 kts | 190° |
| 2026-05-06 17:38 | 49.79151 | 30.75879 | 18619 ft | 424 kts | 190° |
| 2026-05-06 17:38 | 49.76256 | 30.75055 | 19357 ft | 430 kts | 191° |
| 2026-05-06 17:38 | 49.73325 | 30.74221 | 20129 ft | 434 kts | 190° |
| 2026-05-06 17:38 | 49.70337 | 30.73373 | 20818 ft | 439 kts | 191° |
| 2026-05-06 17:39 | 49.67326 | 30.72519 | 21613 ft | 442 kts | 191° |
| 2026-05-06 17:39 | 49.64268 | 30.71653 | 22233 ft | 447 kts | 190° |
| 2026-05-06 17:39 | 49.61189 | 30.70777 | 22867 ft | 452 kts | 191° |
| 2026-05-06 17:39 | 49.58189 | 30.69490 | 23465 ft | 455 kts | 201° |
| 2026-05-06 17:40 | 49.55331 | 30.67411 | 24058 ft | 459 kts | 211° |
| 2026-05-06 17:40 | 49.52669 | 30.64567 | 24602 ft | 463 kts | 221° |
| 2026-05-06 17:40 | 49.50316 | 30.61270 | 25169 ft | 465 kts | 224° |
| 2026-05-06 17:40 | 49.47902 | 30.57896 | 25626 ft | 470 kts | 222° |
| 2026-05-06 17:41 | 49.45481 | 30.54530 | 26148 ft | 473 kts | 223° |
| 2026-05-06 17:41 | 49.43043 | 30.51115 | 26619 ft | 477 kts | 223° |
| 2026-05-06 17:41 | 49.40584 | 30.47651 | 27033 ft | 481 kts | 223° |
| 2026-05-06 17:41 | 49.38091 | 30.44138 | 27549 ft | 483 kts | 223° |
| 2026-05-06 17:42 | 49.35639 | 30.40682 | 28083 ft | 483 kts | 223° |
| 2026-05-06 17:42 | 49.33187 | 30.37229 | 29175 ft | 471 kts | 223° |
| 2026-05-06 17:42 | 49.30799 | 30.33871 | 30225 ft | 459 kts | 222° |
| 2026-05-06 17:42 | 49.28481 | 30.30613 | 31249 ft | 446 kts | 222° |
| 2026-05-06 17:43 | 49.26228 | 30.27456 | 31993 ft | 438 kts | 222° |
| 2026-05-06 17:43 | 49.23945 | 30.24259 | 31975 ft | 447 kts | 222° |
| 2026-05-06 17:43 | 49.19278 | 30.17741 | 31993 ft | 464 kts | 222° |
| 2026-05-06 17:44 | 49.14432 | 30.10989 | 31996 ft | 480 kts | 222° |
| 2026-05-06 17:44 | 49.09423 | 30.04033 | 31998 ft | 494 kts | 222° |
| 2026-05-06 17:45 | 49.04300 | 29.96938 | 31993 ft | 505 kts | 222° |
| 2026-05-06 17:45 | 48.99024 | 29.89652 | 31998 ft | 511 kts | 222° |
| 2026-05-06 17:46 | 48.93829 | 29.82494 | 31995 ft | 500 kts | 222° |
| 2026-05-06 17:46 | 48.88668 | 29.75403 | 31998 ft | 498 kts | 222° |
| 2026-05-06 17:47 | 48.83535 | 29.68369 | 31999 ft | 500 kts | 222° |
| 2026-05-06 17:47 | 48.78399 | 29.61352 | 31872 ft | 484 kts | 222° |
| 2026-05-06 17:48 | 48.75939 | 29.57998 | 31301 ft | 478 kts | 222° |
| 2026-05-06 17:48 | 48.73468 | 29.54631 | 30780 ft | 475 kts | 222° |
| 2026-05-06 17:48 | 48.70999 | 29.51276 | 30223 ft | 478 kts | 222° |
| 2026-05-06 17:48 | 48.68527 | 29.47921 | 29669 ft | 481 kts | 222° |
| 2026-05-06 17:49 | 48.66026 | 29.44531 | 29109 ft | 481 kts | 222° |
| 2026-05-06 17:49 | 48.63554 | 29.41183 | 28574 ft | 475 kts | 222° |
| 2026-05-06 17:49 | 48.61110 | 29.37880 | 28044 ft | 469 kts | 222° |
| 2026-05-06 17:49 | 48.58707 | 29.34635 | 27523 ft | 463 kts | 221° |
| 2026-05-06 17:50 | 48.56290 | 29.31377 | 27016 ft | 463 kts | 221° |
| 2026-05-06 17:50 | 48.53895 | 29.28151 | 26516 ft | 464 kts | 221° |
| 2026-05-06 17:50 | 48.51479 | 29.24902 | 26027 ft | 458 kts | 221° |
| 2026-05-06 17:50 | 48.49136 | 29.21755 | 25556 ft | 452 kts | 221° |
| 2026-05-06 17:51 | 48.46787 | 29.18604 | 25074 ft | 447 kts | 221° |
| 2026-05-06 17:51 | 48.44485 | 29.15520 | 24613 ft | 445 kts | 221° |
| 2026-05-06 17:51 | 48.42149 | 29.12395 | 24150 ft | 443 kts | 221° |
| 2026-05-06 17:51 | 48.39868 | 29.09346 | 23701 ft | 440 kts | 221° |
| 2026-05-06 17:52 | 48.37580 | 29.06293 | 23254 ft | 435 kts | 221° |
| 2026-05-06 17:52 | 48.35319 | 29.03278 | 22824 ft | 431 kts | 221° |
| 2026-05-06 17:52 | 48.33108 | 29.00335 | 22397 ft | 429 kts | 221° |
| 2026-05-06 17:52 | 48.30880 | 28.97375 | 21978 ft | 428 kts | 221° |
| 2026-05-06 17:53 | 48.28651 | 28.94413 | 21564 ft | 427 kts | 221° |
| 2026-05-06 17:53 | 48.26408 | 28.91438 | 21147 ft | 425 kts | 221° |
| 2026-05-06 17:53 | 48.24219 | 28.88537 | 20739 ft | 422 kts | 221° |
| 2026-05-06 17:53 | 48.22003 | 28.85604 | 20326 ft | 420 kts | 221° |
| 2026-05-06 17:54 | 48.19808 | 28.82703 | 19916 ft | 419 kts | 221° |
| 2026-05-06 17:54 | 48.17637 | 28.79854 | 19506 ft | 418 kts | 220° |
| 2026-05-06 17:54 | 48.15296 | 28.77345 | 19100 ft | 415 kts | 209° |
| 2026-05-06 17:54 | 48.12680 | 28.75538 | 18698 ft | 410 kts | 197° |
| 2026-05-06 17:55 | 48.09910 | 28.74692 | 18285 ft | 405 kts | 184° |
| 2026-05-06 17:55 | 48.07092 | 28.74491 | 17850 ft | 403 kts | 179° |
| 2026-05-06 17:55 | 48.04316 | 28.74583 | 17426 ft | 400 kts | 176° |
| 2026-05-06 17:55 | 48.01560 | 28.74812 | 17002 ft | 397 kts | 175° |
| 2026-05-06 17:56 | 47.98821 | 28.75116 | 16581 ft | 394 kts | 174° |
| 2026-05-06 17:56 | 47.96106 | 28.75459 | 16168 ft | 392 kts | 173° |
| 2026-05-06 17:56 | 47.93379 | 28.75826 | 15762 ft | 391 kts | 173° |
| 2026-05-06 17:56 | 47.90684 | 28.76198 | 15331 ft | 390 kts | 173° |
| 2026-05-06 17:57 | 47.87964 | 28.76582 | 14805 ft | 389 kts | 173° |
| 2026-05-06 17:57 | 47.85294 | 28.76961 | 14278 ft | 385 kts | 173° |
| 2026-05-06 17:57 | 47.82630 | 28.77340 | 13749 ft | 381 kts | 173° |
| 2026-05-06 17:57 | 47.80027 | 28.77711 | 13238 ft | 377 kts | 173° |
| 2026-05-06 17:58 | 47.77417 | 28.78083 | 12718 ft | 374 kts | 173° |
| 2026-05-06 17:58 | 47.74863 | 28.78447 | 12203 ft | 370 kts | 173° |
| 2026-05-06 17:58 | 47.72298 | 28.78811 | 11679 ft | 367 kts | 173° |
| 2026-05-06 17:58 | 47.69793 | 28.79166 | 11201 ft | 362 kts | 173° |
| 2026-05-06 17:59 | 47.67286 | 28.79522 | 10727 ft | 360 kts | 173° |
| 2026-05-06 17:59 | 47.64823 | 28.79871 | 10260 ft | 356 kts | 173° |
| 2026-05-06 17:59 | 47.62333 | 28.80224 | 9783 ft | 354 kts | 173° |
| 2026-05-06 17:59 | 47.59913 | 28.80567 | 9307 ft | 351 kts | 173° |
| 2026-05-06 18:00 | 47.57491 | 28.80911 | 9005 ft | 346 kts | 173° |
| 2026-05-06 18:00 | 47.55107 | 28.81246 | 9009 ft | 342 kts | 173° |
| 2026-05-06 18:00 | 47.52789 | 28.81573 | 8729 ft | 337 kts | 173° |
| 2026-05-06 18:00 | 47.50461 | 28.81903 | 8216 ft | 335 kts | 173° |
| 2026-05-06 18:01 | 47.48147 | 28.82229 | 7727 ft | 333 kts | 173° |
| 2026-05-06 18:01 | 47.45844 | 28.82554 | 7230 ft | 331 kts | 173° |
| 2026-05-06 18:01 | 47.43572 | 28.82875 | 6740 ft | 329 kts | 173° |
| 2026-05-06 18:01 | 47.41311 | 28.83193 | 6250 ft | 328 kts | 173° |
| 2026-05-06 18:02 | 47.39039 | 28.83514 | 5757 ft | 326 kts | 173° |
| 2026-05-06 18:02 | 47.36805 | 28.83828 | 5268 ft | 323 kts | 174° |
| 2026-05-06 18:02 | 47.34583 | 28.84137 | 4987 ft | 313 kts | 174° |
| 2026-05-06 18:02 | 47.32480 | 28.84433 | 4896 ft | 299 kts | 174° |
| 2026-05-06 18:03 | 47.30442 | 28.84720 | 4665 ft | 291 kts | 174° |
| 2026-05-06 18:03 | 47.28457 | 28.84998 | 4528 ft | 280 kts | 174° |
| 2026-05-06 18:03 | 47.26543 | 28.85266 | 4394 ft | 271 kts | 174° |
| 2026-05-06 18:03 | 47.24701 | 28.85526 | 4256 ft | 262 kts | 174° |
| 2026-05-06 18:04 | 47.22901 | 28.85778 | 4119 ft | 254 kts | 174° |
| 2026-05-06 18:04 | 47.21180 | 28.86015 | 3986 ft | 249 kts | 174° |
| 2026-05-06 18:04 | 47.19464 | 28.86354 | 3854 ft | 247 kts | 162° |
| 2026-05-06 18:04 | 47.18027 | 28.87680 | 3769 ft | 247 kts | 131° |
| 2026-05-06 18:05 | 47.17152 | 28.89834 | 3692 ft | 250 kts | 116° |
| 2026-05-06 18:05 | 47.16430 | 28.92167 | 3567 ft | 251 kts | 117° |
| 2026-05-06 18:05 | 47.15677 | 28.94468 | 3444 ft | 249 kts | 117° |
| 2026-05-06 18:05 | 47.14926 | 28.96753 | 3320 ft | 244 kts | 117° |
| 2026-05-06 18:06 | 47.14202 | 28.98970 | 3176 ft | 238 kts | 117° |
| 2026-05-06 18:06 | 47.13499 | 29.01145 | 3039 ft | 233 kts | 117° |
| 2026-05-06 18:06 | 47.12812 | 29.03272 | 2905 ft | 227 kts | 117° |
| 2026-05-06 18:06 | 47.12142 | 29.05355 | 2777 ft | 224 kts | 117° |
| 2026-05-06 18:07 | 47.11482 | 29.07409 | 2673 ft | 224 kts | 117° |
| 2026-05-06 18:07 | 47.10807 | 29.09498 | 2552 ft | 225 kts | 117° |
| 2026-05-06 18:07 | 47.10145 | 29.11559 | 2500 ft | 222 kts | 117° |
| 2026-05-06 18:07 | 47.09487 | 29.13574 | 2505 ft | 219 kts | 119° |
| 2026-05-06 18:08 | 47.08818 | 29.15505 | 2493 ft | 203 kts | 119° |
| 2026-05-06 18:08 | 47.08201 | 29.17304 | 2573 ft | 197 kts | 119° |
| 2026-05-06 18:08 | 47.07567 | 29.19133 | 2505 ft | 200 kts | 119° |
| 2026-05-06 18:08 | 47.06971 | 29.20859 | 2471 ft | 183 kts | 119° |
| 2026-05-06 18:09 | 47.06410 | 29.22501 | 2490 ft | 177 kts | 119° |
| 2026-05-06 18:09 | 47.05712 | 29.23983 | 2500 ft | 178 kts | 145° |
| 2026-05-06 18:09 | 47.04610 | 29.24460 | 2493 ft | 160 kts | 189° |
| 2026-05-06 18:09 | 47.03600 | 29.23992 | 2591 ft | 150 kts | 195° |
| 2026-05-06 18:10 | 47.02514 | 29.23672 | 2516 ft | 167 kts | 186° |
| 2026-05-06 18:10 | 47.01381 | 29.23525 | 2451 ft | 158 kts | 182° |
| 2026-05-06 18:10 | 47.00300 | 29.23472 | 2503 ft | 155 kts | 180° |
| 2026-05-06 18:10 | 46.99210 | 29.23485 | 2524 ft | 160 kts | 178° |
| 2026-05-06 18:11 | 46.98096 | 29.23542 | 2505 ft | 159 kts | 177° |
| 2026-05-06 18:11 | 46.96992 | 29.23629 | 2505 ft | 157 kts | 176° |
| 2026-05-06 18:11 | 46.95893 | 29.23734 | 2509 ft | 159 kts | 175° |
| 2026-05-06 18:11 | 46.94759 | 29.23830 | 2522 ft | 166 kts | 183° |
| 2026-05-06 18:12 | 46.93681 | 29.23215 | 2536 ft | 171 kts | 215° |
| 2026-05-06 18:12 | 46.93064 | 29.21728 | 2517 ft | 178 kts | 261° |
| 2026-05-06 18:12 | 46.93098 | 29.19908 | 2539 ft | 182 kts | 270° |
| 2026-05-06 18:12 | 46.93140 | 29.18066 | 2500 ft | 180 kts | 268° |
| 2026-05-06 18:13 | 46.93150 | 29.16250 | 2506 ft | 178 kts | 267° |
| 2026-05-06 18:13 | 46.93145 | 29.14435 | 2512 ft | 179 kts | 266° |
| 2026-05-06 18:13 | 46.93130 | 29.12620 | 2506 ft | 179 kts | 266° |
| 2026-05-06 18:13 | 46.93106 | 29.10772 | 2384 ft | 185 kts | 266° |
| 2026-05-06 18:14 | 46.93079 | 29.08916 | 2110 ft | 180 kts | 265° |
| 2026-05-06 18:14 | 46.93050 | 29.07121 | 1881 ft | 172 kts | 264° |
| 2026-05-06 18:14 | 46.93022 | 29.05449 | 1680 ft | 155 kts | 264° |
| 2026-05-06 18:14 | 46.92996 | 29.03979 | 1494 ft | 139 kts | 264° |
| 2026-05-06 18:15 | 46.92966 | 29.02569 | 1321 ft | 142 kts | 264° |
| 2026-05-06 18:15 | 46.92942 | 29.01066 | 1172 ft | 150 kts | 266° |
| 2026-05-06 18:15 | 46.92934 | 28.99569 | 889 ft | 146 kts | 265° |
| 2026-05-06 18:15 | 46.92888 | 28.98139 | 704 ft | 137 kts | 266° |
| 2026-05-06 18:16 | 46.92857 | 28.96742 | 527 ft | 141 kts | 266° |
| 2026-05-06 18:16 | 46.92825 | 28.95285 | 363 ft | 143 kts | 267° |
| 2026-05-06 18:16 | 46.92796 | 28.93927 | 336 ft | 115 kts | 268° |
| 2026-05-06 18:16 | 46.92778 | 28.93119 | 336 ft | 60 kts | 268° |
| 2026-05-06 18:17 | 46.92767 | 28.92650 | 336 ft | 40 kts | 267° |
| 2026-05-06 18:17 | 46.92762 | 28.92317 | 336 ft | 0 kts | 270° |
| 2026-05-06 18:17 | 46.92762 | 28.92259 | 336 ft | 13 kts | 270° |
| 2026-05-06 18:17 | 46.92764 | 28.92052 | 336 ft | 23 kts | 289° |
| 2026-05-06 18:18 | 46.92907 | 28.91997 | 336 ft | 23 kts | 358° |
| 2026-05-06 18:18 | 46.93071 | 28.91984 | 336 ft | 23 kts | 356° |
| 2026-05-06 18:18 | 46.93226 | 28.92034 | 336 ft | 21 kts | 31° |
| 2026-05-06 18:18 | 46.93247 | 28.92239 | 336 ft | 21 kts | 98° |
| 2026-05-06 18:19 | 46.93228 | 28.92463 | 336 ft | 22 kts | 97° |
| 2026-05-06 18:19 | 46.93211 | 28.92693 | 336 ft | 23 kts | 97° |
| 2026-05-06 18:19 | 46.93191 | 28.92932 | 336 ft | 23 kts | 95° |
| 2026-05-06 18:19 | 46.93171 | 28.93176 | 336 ft | 24 kts | 97° |
| 2026-05-06 18:20 | 46.93155 | 28.93385 | 336 ft | 11 kts | 91° |
| 2026-05-06 18:20 | 46.93202 | 28.93447 | 336 ft | 10 kts | 12° |
| 2026-05-06 18:20 | 46.93276 | 28.93463 | 336 ft | 11 kts | 5° |
| 2026-05-06 18:20 | 46.93313 | 28.93506 | 336 ft | 6 kts | 86° |
| 2026-05-06 18:21 | 46.93310 | 28.93582 | 336 ft | 7 kts | 98° |
| 2026-05-06 18:21 | 46.93303 | 28.93667 | 336 ft | 9 kts | 97° |
| 2026-05-06 18:21 | 46.93319 | 28.93721 | 336 ft | 5 kts | 22° |
| 2026-05-06 18:21 | 46.93353 | 28.93728 | 336 ft | 0 kts | 7° |